Time;durP1;ratioP1;P1;durP2;ratioP2;P2;SDS_P1;SDS_P2;PMS_P1;PMS_P2;Temp;Humidity;BMP_temperature;BMP_pressure;BME280_temperature;BME280_humidity;BME280_pressure;Samples;Min_cycle;Max_cycle;Signal;HPM_P1;HPM_P2
2021/07/31 00:01:15;;;;;;;17.27;10.33;;;;;;;27.02;51.89;94417.91;5053987;28;20434;-79
2021/07/31 00:03:42;;;;;;;22.30;10.60;;;;;;;27.01;51.70;94410.88;5053727;28;20522;-78
2021/07/31 00:06:11;;;;;;;14.20;9.83;;;;;;;27.02;52.21;94414.41;5053672;28;20455;-79
2021/07/31 00:08:38;;;;;;;18.23;9.50;;;;;;;27.00;52.47;94419.22;5054047;28;20456;-79
2021/07/31 00:11:05;;;;;;;24.23;11.53;;;;;;;26.92;52.63;94412.31;5054125;28;20868;-79
2021/07/31 00:13:32;;;;;;;11.93;9.50;;;;;;;26.84;53.00;94416.19;5054113;28;20445;-79
2021/07/31 00:15:59;;;;;;;19.03;10.17;;;;;;;26.83;53.31;94411.88;5053962;28;20442;-79
2021/07/31 00:18:25;;;;;;;17.20;9.80;;;;;;;26.80;53.92;94415.06;5053611;28;20512;-79
2021/07/31 00:20:52;;;;;;;14.30;10.47;;;;;;;26.77;53.56;94417.41;5053758;28;20824;-79
2021/07/31 00:23:21;;;;;;;16.67;10.77;;;;;;;26.74;53.73;94412.53;5053489;28;20437;-79
2021/07/31 00:25:48;;;;;;;19.93;11.13;;;;;;;26.62;54.12;94415.28;5053529;28;20473;-79
2021/07/31 00:28:15;;;;;;;21.10;10.50;;;;;;;26.45;55.23;94419.78;5053878;28;20444;-79
2021/07/31 00:30:41;;;;;;;23.13;10.57;;;;;;;26.40;55.57;94415.13;5053522;28;20469;-79
2021/07/31 00:33:08;;;;;;;22.27;11.80;;;;;;;26.40;55.75;94409.75;5053348;28;20446;-79
2021/07/31 00:35:35;;;;;;;13.27;10.00;;;;;;;26.39;56.13;94416.19;5053749;28;20436;-79
2021/07/31 00:38:02;;;;;;;17.00;11.40;;;;;;;26.31;56.48;94424.59;5053429;28;20517;-79
2021/07/31 00:40:31;;;;;;;19.53;12.37;;;;;;;26.25;56.49;94406.72;5053643;28;20471;-79
2021/07/31 00:42:58;;;;;;;18.33;10.80;;;;;;;26.14;56.73;94411.06;5057631;28;20536;-79
2021/07/31 00:45:24;;;;;;;16.60;10.80;;;;;;;26.12;56.92;94399.75;5057275;28;20458;-79
2021/07/31 00:47:52;;;;;;;20.30;11.40;;;;;;;26.11;57.08;94403.47;5022680;28;20451;-78
2021/07/31 00:50:19;;;;;;;23.37;11.27;;;;;;;26.07;56.93;94410.41;5057205;28;20932;-79
2021/07/31 00:52:46;;;;;;;13.57;10.80;;;;;;;26.06;57.11;94405.25;5057379;28;20451;-79
2021/07/31 00:55:14;;;;;;;17.27;10.93;;;;;;;26.01;57.00;94405.13;5057644;28;20442;-79
2021/07/31 00:57:45;;;;;;;21.90;11.03;;;;;;;26.01;56.72;94407.81;5057068;28;20459;-79
2021/07/31 01:00:13;;;;;;;15.20;10.20;;;;;;;25.98;57.19;94406.41;5057681;28;20441;-79
2021/07/31 01:02:40;;;;;;;17.90;10.90;;;;;;;25.94;56.98;94403.38;5038465;28;20532;-79
2021/07/31 01:05:08;;;;;;;23.30;10.20;;;;;;;25.95;57.22;94404.22;5057171;28;20437;-79
2021/07/31 01:07:36;;;;;;;28.27;10.80;;;;;;;25.95;56.98;94406.91;5022405;28;20506;-79
2021/07/31 01:10:03;;;;;;;23.00;11.40;;;;;;;25.97;56.72;94396.72;5057438;28;20763;-79
2021/07/31 01:12:31;;;;;;;19.67;10.37;;;;;;;26.03;57.49;94400.34;5056767;28;20971;-78
2021/07/31 01:14:59;;;;;;;16.50;9.77;;;;;;;26.05;56.75;94398.25;5057003;28;20789;-79
2021/07/31 01:17:26;;;;;;;17.70;10.40;;;;;;;26.07;57.14;94388.88;5056547;28;20452;-79
2021/07/31 01:19:53;;;;;;;17.10;10.67;;;;;;;26.08;56.66;94390.50;5056780;28;20447;-79
2021/07/31 01:22:22;;;;;;;18.27;10.20;;;;;;;26.02;57.09;94385.25;5056963;28;20527;-79
2021/07/31 01:24:49;;;;;;;19.67;10.73;;;;;;;25.97;57.10;94383.28;5056761;28;20457;-79
2021/07/31 01:27:15;;;;;;;24.53;11.80;;;;;;;25.93;57.50;94388.31;5038180;28;20780;-79
2021/07/31 01:29:42;;;;;;;16.90;11.07;;;;;;;25.89;57.65;94387.16;5056636;28;20527;-79
2021/07/31 01:32:09;;;;;;;19.83;10.57;;;;;;;25.86;57.32;94393.00;5056706;28;20478;-79
2021/07/31 01:34:36;;;;;;;19.27;10.03;;;;;;;25.86;57.03;94384.94;5056431;28;20531;-79
2021/07/31 01:37:03;;;;;;;17.93;10.90;;;;;;;25.91;58.31;94381.53;5056613;28;20441;-79
2021/07/31 01:39:32;;;;;;;20.07;9.93;;;;;;;25.92;57.54;94380.47;5038115;28;20446;-79
2021/07/31 01:42:00;;;;;;;19.67;10.83;;;;;;;25.94;57.79;94379.19;5037906;28;20467;-78
2021/07/31 01:44:27;;;;;;;20.90;10.63;;;;;;;25.98;57.34;94384.91;5056292;28;20539;-79
2021/07/31 01:46:54;;;;;;;20.73;11.10;;;;;;;25.99;57.08;94386.53;5056552;28;20430;-79
2021/07/31 01:49:21;;;;;;;15.60;10.73;;;;;;;25.99;56.87;94385.72;5056591;28;20429;-79
2021/07/31 01:51:48;;;;;;;19.77;11.73;;;;;;;25.97;57.07;94379.78;5056074;28;20540;-79
2021/07/31 01:54:15;;;;;;;22.00;10.13;;;;;;;25.98;58.65;94378.72;5055164;28;20449;-79
2021/07/31 01:56:47;;;;;;;16.93;10.60;;;;;;;25.96;57.38;94384.34;5021105;28;20917;-78
2021/07/31 01:59:14;;;;;;;19.57;11.23;;;;;;;25.97;57.01;94385.16;5056466;28;20453;-78
2021/07/31 02:01:41;;;;;;;15.20;10.20;;;;;;;25.92;57.57;94383.19;5055881;28;20774;-78
2021/07/31 02:04:11;;;;;;;22.00;10.80;;;;;;;25.92;58.56;94381.31;5021227;28;20449;-78
2021/07/31 02:06:38;;;;;;;26.80;12.83;;;;;;;25.85;58.28;94385.19;5056426;28;20464;-79
2021/07/31 02:09:05;;;;;;;15.33;11.10;;;;;;;25.82;58.65;94381.09;5021080;28;20460;-78
2021/07/31 02:11:32;;;;;;;20.80;11.23;;;;;;;25.79;58.19;94380.75;5021010;28;20481;-79
2021/07/31 02:14:00;;;;;;;21.57;11.40;;;;;;;25.73;58.83;94382.50;5056157;28;20442;-79
2021/07/31 02:16:28;;;;;;;22.80;12.80;;;;;;;25.67;58.51;94383.44;5056091;28;20768;-79
2021/07/31 02:18:55;;;;;;;22.50;12.23;;;;;;;25.62;58.59;94386.00;5055605;28;20451;-79
2021/07/31 02:21:22;;;;;;;22.00;11.23;;;;;;;25.53;59.84;94387.41;5055642;28;20463;-79
2021/07/31 02:23:50;;;;;;;24.30;11.87;;;;;;;25.53;59.34;94382.03;5055720;28;20450;-79
2021/07/31 02:26:17;;;;;;;17.77;11.30;;;;;;;25.55;60.23;94393.38;5055183;28;20564;-79
2021/07/31 02:28:46;;;;;;;14.60;10.87;;;;;;;25.50;60.73;94393.25;5055461;28;20441;-79
2021/07/31 02:31:14;;;;;;;15.33;11.07;;;;;;;25.51;59.85;94392.22;5055751;28;20472;-79
2021/07/31 02:33:41;;;;;;;21.03;11.57;;;;;;;25.38;60.53;94393.25;5055485;28;20435;-78
2021/07/31 02:36:08;;;;;;;16.33;11.20;;;;;;;25.42;60.70;94398.97;5055636;28;20433;-79
2021/07/31 02:38:37;;;;;;;22.80;13.23;;;;;;;25.42;59.89;94399.78;5055918;28;20463;-79
2021/07/31 02:41:04;;;;;;;19.67;14.00;;;;;;;25.41;61.19;94405.38;5055372;28;20441;-79
2021/07/31 02:43:31;;;;;;;20.30;11.83;;;;;;;25.41;60.09;94403.50;5055421;28;20548;-79
2021/07/31 02:46:03;;;;;;;25.80;13.00;;;;;;;25.31;60.81;94401.41;5055105;28;20456;-79
2021/07/31 02:48:32;;;;;;;30.83;14.30;;;;;;;25.24;61.61;94405.28;5055700;28;20511;-79
2021/07/31 02:51:02;;;;;;;24.73;12.80;;;;;;;25.13;61.10;94409.56;5055054;28;20473;-79
2021/07/31 02:53:29;;;;;;;23.80;12.73;;;;;;;25.16;61.44;94406.44;5055407;28;20536;-79
2021/07/31 02:55:56;;;;;;;22.20;12.60;;;;;;;25.14;61.70;94411.19;5055301;28;20527;-79
2021/07/31 02:58:24;;;;;;;19.43;13.03;;;;;;;25.12;61.56;94413.31;5055520;28;20452;-79
2021/07/31 03:00:50;;;;;;;22.80;13.57;;;;;;;25.10;62.32;94409.22;5054891;28;20979;-79
2021/07/31 03:03:17;;;;;;;20.43;12.83;;;;;;;25.13;61.72;94414.13;5055002;28;20443;-79
2021/07/31 03:05:53;;;;;;;22.07;13.67;;;;;;;25.16;62.62;94417.19;5053994;28;20448;-79
2021/07/31 03:08:20;;;;;;;22.57;12.77;;;;;;;25.20;62.07;94418.34;5054830;28;20452;-79
2021/07/31 03:10:47;;;;;;;28.83;14.07;;;;;;;25.15;61.49;94415.53;5054573;28;20538;-79
2021/07/31 03:13:14;;;;;;;25.93;13.63;;;;;;;25.18;61.24;94416.94;5055132;28;20454;-79
2021/07/31 03:15:41;;;;;;;26.10;13.10;;;;;;;25.16;60.90;94419.06;5054572;28;20927;-79
2021/07/31 03:18:08;;;;;;;16.73;13.17;;;;;;;25.10;61.10;94420.78;5055095;28;20436;-79
2021/07/31 03:20:35;;;;;;;22.33;13.70;;;;;;;25.09;61.49;94421.81;5054607;28;20433;-80
2021/07/31 03:23:03;;;;;;;18.60;12.57;;;;;;;25.07;62.62;94425.78;5054642;28;20463;-80
2021/07/31 03:25:30;;;;;;;26.70;14.40;;;;;;;25.06;66.20;94429.53;5054419;28;20480;-81
2021/07/31 03:27:57;;;;;;;51.33;21.20;;;;;;;25.14;90.48;94432.69;5036041;28;20453;-79
2021/07/31 03:30:24;;;;;;;27.25;14.10;;;;;;;25.24;72.73;94432.94;5053869;28;20436;-79
2021/07/31 03:36:25;;;;;;;23.20;12.70;;;;;;;25.37;70.08;94426.53;5053933;28;20428;-79
2021/07/31 03:38:53;;;;;;;15.83;12.10;;;;;;;25.50;72.05;94429.00;5054087;28;20436;-75
2021/07/31 03:41:20;;;;;;;19.60;12.17;;;;;;;25.62;69.93;94434.38;5054358;28;20475;-78
2021/07/31 03:43:47;;;;;;;23.90;13.87;;;;;;;25.73;66.21;94430.88;5053717;28;20545;-76
2021/07/31 03:46:14;;;;;;;16.97;12.50;;;;;;;25.85;66.33;94426.31;5053651;28;20460;-76
2021/07/31 03:48:41;;;;;;;23.70;10.93;;;;;;;25.87;62.12;94434.97;5053952;28;20446;-76
2021/07/31 03:51:07;;;;;;;14.30;11.73;;;;;;;25.85;63.10;94429.00;5018894;28;20457;-76
2021/07/31 03:53:34;;;;;;;23.20;11.87;;;;;;;25.93;61.67;94423.25;5053938;28;20453;-78
2021/07/31 03:56:03;;;;;;;21.90;12.87;;;;;;;25.88;62.38;94419.66;5054202;28;20433;-82
2021/07/31 03:58:30;;;;;;;15.40;12.17;;;;;;;25.76;59.83;94417.00;5053715;28;20525;-79
2021/07/31 04:00:57;;;;;;;22.80;16.33;;;;;;;25.76;63.20;94418.88;5053529;28;20492;-79
2021/07/31 04:03:24;;;;;;;19.50;12.17;;;;;;;25.76;61.53;94418.88;5034967;28;20455;-77
2021/07/31 04:05:51;;;;;;;21.97;12.90;;;;;;;25.89;64.36;94419.41;5053783;28;20452;-77
2021/07/31 04:08:18;;;;;;;24.80;11.87;;;;;;;26.08;66.14;94419.28;5054092;28;20455;-77
2021/07/31 04:10:45;;;;;;;23.17;13.93;;;;;;;26.21;63.32;94416.31;5053479;28;20451;-76
2021/07/31 04:13:13;;;;;;;22.90;14.10;;;;;;;26.35;61.38;94428.47;5018544;28;20477;-77
2021/07/31 04:15:42;;;;;;;20.43;12.90;;;;;;;26.59;61.14;94429.19;5052423;28;20458;-79
2021/07/31 04:18:09;;;;;;;25.73;13.73;;;;;;;26.86;59.01;94429.41;5053327;28;20937;-79
2021/07/31 04:20:37;;;;;;;24.90;14.30;;;;;;;27.17;59.58;94433.50;5053523;28;20816;-79
2021/07/31 04:23:03;;;;;;;30.83;13.57;;;;;;;27.27;56.23;94440.94;5053618;28;20505;-79
2021/07/31 04:25:30;;;;;;;26.83;15.10;;;;;;;26.96;57.32;94439.59;5053450;28;20826;-81
2021/07/31 04:27:59;;;;;;;16.83;12.93;;;;;;;26.95;57.62;94441.47;5053486;28;20509;-80
2021/07/31 04:30:27;;;;;;;29.27;13.20;;;;;;;27.11;57.19;94443.38;5053770;28;20526;-79
2021/07/31 04:32:56;;;;;;;19.63;12.80;;;;;;;27.17;56.38;94447.78;5053287;28;21003;-80
2021/07/31 04:35:23;;;;;;;21.97;12.37;;;;;;;27.29;57.72;94449.59;5053860;28;20485;-79
2021/07/31 04:37:50;;;;;;;24.53;14.37;;;;;;;27.51;56.81;94461.28;5053831;28;20521;-79
2021/07/31 04:40:17;;;;;;;24.80;13.50;;;;;;;27.82;57.61;94453.72;5053257;28;20450;-78
2021/07/31 04:42:44;;;;;;;22.93;13.83;;;;;;;28.14;55.13;94468.19;5053253;28;20537;-78
2021/07/31 04:45:11;;;;;;;24.37;14.40;;;;;;;28.48;55.59;94468.13;5053203;28;20438;-81
2021/07/31 04:47:40;;;;;;;20.00;13.33;;;;;;;28.82;53.72;94466.06;5052845;28;20541;-77
2021/07/31 04:50:09;;;;;;;20.07;12.93;;;;;;;29.06;52.81;94472.84;5033970;28;20436;-77
2021/07/31 04:52:36;;;;;;;28.30;13.60;;;;;;;29.19;52.37;94477.03;5053188;28;20479;-77
2021/07/31 04:55:03;;;;;;;23.87;12.80;;;;;;;29.37;51.94;94497.47;5052458;28;20458;-76
2021/07/31 04:57:30;;;;;;;24.53;12.83;;;;;;;29.40;51.95;94492.38;5052728;28;20921;-78
2021/07/31 04:59:57;;;;;;;31.27;13.97;;;;;;;29.64;51.89;94500.19;5052766;28;20446;-80
2021/07/31 05:02:24;;;;;;;23.13;13.57;;;;;;;29.75;50.83;94496.47;5052911;28;20809;-79
2021/07/31 05:04:52;;;;;;;20.00;12.20;;;;;;;29.99;50.70;94497.72;5052620;28;20450;-77
2021/07/31 05:07:19;;;;;;;21.73;12.57;;;;;;;30.18;49.56;94498.97;5052741;28;20465;-78
2021/07/31 05:09:46;;;;;;;21.30;12.43;;;;;;;29.92;49.29;94494.44;5052506;28;20448;-77
2021/07/31 05:12:13;;;;;;;19.50;14.20;;;;;;;29.90;49.76;94491.19;5052600;28;20488;-78
2021/07/31 05:14:40;;;;;;;26.53;14.33;;;;;;;29.79;49.76;94493.00;5033755;28;21052;-81
2021/07/31 05:17:07;;;;;;;25.17;14.37;;;;;;;29.66;49.57;94490.72;5052439;28;20453;-77
2021/07/31 05:19:34;;;;;;;27.63;14.13;;;;;;;29.77;49.64;94494.31;5053017;28;20532;-80
2021/07/31 05:22:03;;;;;;;26.60;14.43;;;;;;;29.89;49.67;94492.25;5052183;28;20476;-76
2021/07/31 05:24:30;;;;;;;24.87;13.27;;;;;;;29.97;50.61;94490.94;5052615;28;20464;-76
2021/07/31 05:26:56;;;;;;;25.80;13.73;;;;;;;30.22;49.40;94496.56;5051883;28;20479;-76
2021/07/31 05:29:23;;;;;;;22.67;13.23;;;;;;;30.52;49.07;94498.63;5055008;28;20528;-77
2021/07/31 05:31:50;;;;;;;32.03;12.80;;;;;;;30.79;47.61;94501.22;5056340;28;20493;-77
2021/07/31 05:34:17;;;;;;;24.77;13.37;;;;;;;30.62;47.71;94506.81;5056598;28;20445;-81
2021/07/31 05:36:44;;;;;;;28.17;13.90;;;;;;;30.94;48.28;94501.28;5057246;28;20440;-78
2021/07/31 05:39:13;;;;;;;26.37;14.37;;;;;;;31.34;50.58;94511.44;5056909;28;20532;-78
2021/07/31 05:41:40;;;;;;;18.97;12.90;;;;;;;31.78;47.24;94504.69;5056536;28;20449;-78
2021/07/31 05:44:07;;;;;;;18.87;13.00;;;;;;;32.08;44.98;94510.09;5056254;28;20442;-80
2021/07/31 05:46:34;;;;;;;19.90;11.87;;;;;;;32.42;47.35;94510.38;5020896;28;20442;-78
2021/07/31 05:49:01;;;;;;;21.43;13.33;;;;;;;32.81;44.08;94513.25;5055639;28;20452;-78
2021/07/31 05:51:28;;;;;;;29.37;12.80;;;;;;;33.16;41.10;94512.28;5055595;28;20456;-78
2021/07/31 05:53:55;;;;;;;14.20;11.77;;;;;;;33.40;40.16;94514.34;5055563;28;20489;-77
2021/07/31 05:56:23;;;;;;;16.77;12.60;;;;;;;33.60;40.72;94514.22;5055652;28;20449;-78
2021/07/31 05:58:50;;;;;;;24.00;13.03;;;;;;;33.65;39.91;94514.19;5055598;28;20529;-78
2021/07/31 06:01:17;;;;;;;18.80;11.43;;;;;;;33.77;39.16;94511.09;5055763;28;20444;-78
2021/07/31 06:03:44;;;;;;;18.00;12.10;;;;;;;33.91;39.88;94508.56;5055809;28;20445;-77
2021/07/31 06:06:11;;;;;;;22.27;13.13;;;;;;;34.01;38.83;94512.00;5055236;28;20533;-77
2021/07/31 06:08:37;;;;;;;28.27;12.90;;;;;;;34.07;38.73;94512.78;5037134;28;20928;-76
2021/07/31 06:11:06;;;;;;;17.83;11.57;;;;;;;34.17;39.12;94502.63;5055708;28;20452;-81
2021/07/31 06:13:35;;;;;;;23.13;14.23;;;;;;;34.18;38.71;94500.72;5055484;28;20569;-77
2021/07/31 06:16:02;;;;;;;19.23;13.07;;;;;;;34.35;38.40;94501.09;5055391;28;20473;-78
2021/07/31 06:18:29;;;;;;;24.90;12.83;;;;;;;34.56;38.17;94507.16;5055546;28;20449;-78
2021/07/31 06:20:56;;;;;;;24.33;13.87;;;;;;;34.70;37.77;94499.09;5055012;28;20450;-78
2021/07/31 06:23:23;;;;;;;20.33;13.23;;;;;;;34.79;37.85;94498.16;5055323;28;20446;-78
2021/07/31 06:25:50;;;;;;;23.10;14.00;;;;;;;34.95;37.47;94498.81;5055082;28;20820;-78
2021/07/31 06:28:17;;;;;;;24.20;12.90;;;;;;;35.16;37.15;94504.00;5054976;28;20529;-78
2021/07/31 06:30:45;;;;;;;18.80;14.60;;;;;;;35.35;36.22;94499.41;5055002;28;20536;-78
2021/07/31 06:33:13;;;;;;;18.83;12.97;;;;;;;35.47;36.68;94496.22;5055149;28;20485;-78
2021/07/31 06:35:40;;;;;;;19.90;12.90;;;;;;;35.47;36.71;94497.03;5055003;28;20445;-79
2021/07/31 06:38:07;;;;;;;22.17;13.10;;;;;;;35.59;36.75;94493.88;5055230;28;20448;-78
2021/07/31 06:40:34;;;;;;;18.20;12.83;;;;;;;35.61;37.45;94495.19;5054837;28;20457;-78
2021/07/31 06:43:01;;;;;;;17.77;13.83;;;;;;;35.35;36.30;94491.22;5055055;28;20536;-78
2021/07/31 06:45:28;;;;;;;19.00;12.53;;;;;;;35.28;37.08;94490.75;5055068;28;20905;-78
2021/07/31 06:47:56;;;;;;;24.80;13.20;;;;;;;35.07;36.43;94485.56;5055183;28;20525;-78
2021/07/31 06:50:23;;;;;;;26.90;15.37;;;;;;;35.05;37.67;94490.50;5054933;28;20915;-78
2021/07/31 06:52:50;;;;;;;21.73;13.70;;;;;;;34.77;37.91;94488.66;5054560;28;20473;-78
2021/07/31 06:55:17;;;;;;;26.50;13.57;;;;;;;34.44;38.54;94485.75;5036450;28;20438;-78
2021/07/31 06:57:44;;;;;;;23.67;13.87;;;;;;;34.32;38.42;94484.47;5036138;28;20528;-78
2021/07/31 07:00:12;;;;;;;18.03;14.00;;;;;;;34.51;39.20;94485.41;5054884;28;20434;-78
2021/07/31 07:02:39;;;;;;;22.67;14.33;;;;;;;34.54;38.80;94478.56;5054661;28;20922;-78
2021/07/31 07:05:08;;;;;;;24.20;12.57;;;;;;;34.86;39.15;94480.66;5054472;28;20456;-79
2021/07/31 07:07:35;;;;;;;18.73;13.10;;;;;;;34.52;38.63;94483.50;5054492;28;20445;-78
2021/07/31 07:10:02;;;;;;;27.53;14.60;;;;;;;34.88;39.92;94484.72;5019311;28;20446;-80
2021/07/31 07:12:29;;;;;;;21.97;13.20;;;;;;;35.15;39.00;94477.81;5054624;28;20565;-78
2021/07/31 07:14:56;;;;;;;20.63;13.50;;;;;;;35.44;37.16;94480.44;5054126;28;20791;-78
2021/07/31 07:17:23;;;;;;;29.97;13.13;;;;;;;35.56;36.42;94480.78;5054444;28;20528;-78
2021/07/31 07:19:50;;;;;;;22.47;11.63;;;;;;;35.80;36.82;94477.97;5035421;28;20938;-78
2021/07/31 07:22:21;;;;;;;27.40;13.43;;;;;;;35.95;36.07;94486.75;5054196;28;20449;-78
2021/07/31 07:24:51;;;;;;;20.07;13.57;;;;;;;35.86;35.25;94476.81;4971365;28;20795;-78
2021/07/31 07:27:18;;;;;;;23.97;15.67;;;;;;;35.78;35.86;94477.44;5054058;28;20743;-78
2021/07/31 07:29:45;;;;;;;15.80;12.70;;;;;;;35.13;37.38;94480.84;5035374;28;20438;-79
2021/07/31 07:32:11;;;;;;;27.60;13.73;;;;;;;34.66;39.12;94477.03;5053866;28;20460;-77
2021/07/31 07:34:40;;;;;;;23.33;14.10;;;;;;;34.51;39.25;94482.69;5053562;28;20446;-78
2021/07/31 07:37:07;;;;;;;25.20;13.60;;;;;;;34.80;39.33;94488.06;5053522;28;20474;-77
2021/07/31 07:39:35;;;;;;;21.33;14.50;;;;;;;34.76;38.79;94487.03;5054002;28;20532;-79
2021/07/31 07:42:03;;;;;;;19.23;13.27;;;;;;;35.09;36.94;94486.09;5053614;28;20522;-79
2021/07/31 07:44:30;;;;;;;20.73;13.27;;;;;;;35.37;37.01;94481.63;5053788;28;20533;-76
2021/07/31 07:46:57;;;;;;;24.93;13.80;;;;;;;35.56;36.98;94483.53;5034625;28;20466;-76
2021/07/31 07:49:24;;;;;;;23.20;13.90;;;;;;;35.33;36.09;94479.75;5053636;28;20446;-76
2021/07/31 07:51:51;;;;;;;19.90;12.57;;;;;;;35.18;36.46;94472.59;5052566;28;20810;-76
2021/07/31 07:54:18;;;;;;;19.20;13.30;;;;;;;35.31;37.20;94471.06;5053758;28;20492;-74
2021/07/31 07:56:46;;;;;;;18.13;12.73;;;;;;;35.26;36.79;94471.13;5053292;28;20524;-74
2021/07/31 07:59:13;;;;;;;35.40;14.10;;;;;;;34.90;37.23;94474.31;5052569;28;20452;-78
2021/07/31 08:01:40;;;;;;;23.07;12.97;;;;;;;34.83;38.57;94470.31;5052466;28;20445;-75
2021/07/31 08:04:07;;;;;;;25.30;13.70;;;;;;;34.75;37.94;94469.06;5052425;28;20842;-74
2021/07/31 08:06:34;;;;;;;32.17;12.90;;;;;;;34.77;38.33;94469.56;5052669;28;20449;-74
2021/07/31 08:09:01;;;;;;;17.23;13.37;;;;;;;34.77;39.28;94467.66;5050592;28;20468;-82
2021/07/31 08:11:28;;;;;;;20.07;13.80;;;;;;;34.97;38.07;94463.88;5034200;28;20821;-74
2021/07/31 08:13:56;;;;;;;33.63;13.80;;;;;;;35.06;37.31;94464.03;5052675;28;20481;-77
2021/07/31 08:16:23;;;;;;;30.20;13.50;;;;;;;35.26;39.31;94458.28;5053337;28;20511;-72
2021/07/31 08:18:50;;;;;;;24.03;12.57;;;;;;;35.10;37.81;94459.63;5053010;28;20456;-73
2021/07/31 08:21:17;;;;;;;28.93;14.17;;;;;;;34.99;38.33;94466.31;5052953;28;20921;-73
2021/07/31 08:23:44;;;;;;;20.77;13.30;;;;;;;35.01;37.83;94454.03;5045855;28;20454;-72
2021/07/31 08:26:13;;;;;;;23.23;13.13;;;;;;;35.19;38.09;94457.84;5041322;28;20497;-73
2021/07/31 08:28:40;;;;;;;27.70;14.60;;;;;;;35.45;38.65;94454.78;5052651;28;20452;-73
2021/07/31 08:31:09;;;;;;;22.53;13.60;;;;;;;35.57;37.38;94453.22;5052898;28;20452;-73
2021/07/31 08:33:36;;;;;;;32.17;14.23;;;;;;;35.58;36.28;94457.59;5050949;28;20488;-76
2021/07/31 08:36:04;;;;;;;22.30;13.17;;;;;;;35.61;36.44;94458.91;5050011;28;20471;-77
2021/07/31 08:38:31;;;;;;;20.83;13.23;;;;;;;35.78;36.97;94452.88;5052999;28;20448;-76
2021/07/31 08:40:59;;;;;;;19.83;13.30;;;;;;;35.87;36.45;94451.94;5052508;28;20545;-77
2021/07/31 08:43:28;;;;;;;18.67;12.83;;;;;;;35.96;36.07;94463.00;5052172;28;20455;-80
2021/07/31 08:45:55;;;;;;;22.20;12.70;;;;;;;35.95;36.48;94453.19;5052478;28;20449;-78
2021/07/31 08:48:27;;;;;;;21.60;12.17;;;;;;;36.00;34.23;94450.34;5053551;28;20446;-77
2021/07/31 08:50:58;;;;;;;24.60;14.00;;;;;;;35.88;35.00;94455.50;5052591;28;20449;-77
2021/07/31 08:53:26;;;;;;;26.40;12.10;;;;;;;35.91;35.14;94454.88;5052941;28;20992;-76
2021/07/31 08:55:53;;;;;;;24.57;12.33;;;;;;;35.95;35.13;94444.97;5053147;28;20445;-77
2021/07/31 08:58:23;;;;;;;27.10;12.10;;;;;;;35.87;35.68;94443.75;5053554;28;20445;-86
2021/07/31 09:00:50;;;;;;;25.47;13.20;;;;;;;35.69;35.58;94439.91;5053310;28;20473;-83
2021/07/31 09:03:17;;;;;;;21.03;12.20;;;;;;;35.62;36.00;94439.50;5056174;28;20529;-83
2021/07/31 09:05:45;;;;;;;19.13;11.93;;;;;;;35.53;34.36;94433.06;5057567;28;20440;-84
2021/07/31 09:08:12;;;;;;;18.50;12.40;;;;;;;35.54;34.19;94437.41;5022343;28;20795;-84
2021/07/31 09:10:42;;;;;;;29.20;13.30;;;;;;;35.63;35.32;94438.38;5038377;28;20432;-84
2021/07/31 09:13:10;;;;;;;24.90;12.60;;;;;;;35.60;36.46;94438.97;5057329;28;20560;-84
2021/07/31 09:15:40;;;;;;;22.67;12.53;;;;;;;35.29;35.15;94440.53;5056416;28;20868;-83
2021/07/31 09:18:25;;;;;;;30.33;12.80;;;;;;;35.25;35.29;94434.81;5037943;28;20516;-84
2021/07/31 09:21:03;;;;;;;19.73;11.60;;;;;;;35.08;35.45;94424.44;5038360;28;20914;-85
2021/07/31 09:23:47;;;;;;;27.70;11.47;;;;;;;34.56;35.22;94427.31;5022594;28;20429;-85
2021/07/31 09:26:17;;;;;;;18.23;11.70;;;;;;;34.98;36.21;94421.84;5056839;28;20475;-84
2021/07/31 09:28:45;;;;;;;23.13;12.50;;;;;;;35.00;34.26;94416.94;5056606;28;20430;-84
2021/07/31 09:31:16;;;;;;;22.43;11.83;;;;;;;35.26;35.35;94406.44;5056585;28;20520;-84
2021/07/31 09:33:46;;;;;;;20.17;11.80;;;;;;;35.34;34.11;94414.00;5022334;28;21004;-83
2021/07/31 09:36:14;;;;;;;16.50;12.33;;;;;;;35.21;33.91;94411.97;5059410;28;20452;-84
2021/07/31 09:38:43;;;;;;;23.03;10.73;;;;;;;35.43;33.45;94410.59;5056667;28;20935;-84
2021/07/31 09:41:36;;;;;;;24.00;11.80;;;;;;;35.43;35.80;94414.13;5037750;28;20902;-84
2021/07/31 09:44:09;;;;;;;25.43;11.23;;;;;;;35.52;35.19;94411.53;5056769;28;20426;-85
2021/07/31 09:46:44;;;;;;;20.13;12.20;;;;;;;35.65;34.89;94411.59;5056813;28;20795;-84
2021/07/31 09:49:13;;;;;;;20.03;12.23;;;;;;;35.84;35.00;94399.81;5055829;28;20910;-76
2021/07/31 09:51:42;;;;;;;21.70;12.37;;;;;;;36.01;34.70;94397.34;5055822;28;20442;-76
2021/07/31 09:54:10;;;;;;;26.23;12.23;;;;;;;36.19;34.74;94398.38;5036861;28;20481;-76
2021/07/31 09:56:40;;;;;;;21.33;12.50;;;;;;;36.11;33.39;94397.13;5055607;28;20444;-76
2021/07/31 09:59:08;;;;;;;19.43;12.50;;;;;;;36.19;32.99;94393.72;5055206;28;20460;-78
2021/07/31 10:01:37;;;;;;;21.77;12.60;;;;;;;36.32;34.13;94385.84;5055346;28;20460;-77
2021/07/31 10:04:04;;;;;;;29.87;13.40;;;;;;;36.39;33.60;94391.72;5055587;28;20934;-77
2021/07/31 10:06:32;;;;;;;20.53;12.30;;;;;;;36.32;34.90;94389.38;5055099;28;20441;-77
2021/07/31 10:09:03;;;;;;;29.50;13.00;;;;;;;36.18;33.68;94385.81;5055550;28;20446;-77
2021/07/31 10:11:32;;;;;;;15.37;11.50;;;;;;;36.05;35.63;94376.50;5055277;28;20528;-76
2021/07/31 10:14:00;;;;;;;18.73;12.10;;;;;;;36.06;36.05;94372.66;5054468;28;20491;-78
2021/07/31 10:16:28;;;;;;;23.37;12.60;;;;;;;36.08;35.10;94381.34;5055366;28;20532;-82
2021/07/31 10:18:59;;;;;;;28.77;12.50;;;;;;;36.12;35.38;94376.91;5055066;28;20454;-78
2021/07/31 10:21:27;;;;;;;22.77;12.97;;;;;;;36.14;35.20;94371.13;5019648;28;20450;-78
2021/07/31 10:24:04;;;;;;;16.80;11.93;;;;;;;35.93;35.67;94368.00;5054749;28;20947;-78
2021/07/31 10:26:33;;;;;;;20.87;11.90;;;;;;;35.99;35.89;94364.84;5055248;28;20479;-84
2021/07/31 10:29:37;;;;;;;25.87;13.10;;;;;;;35.50;34.71;94365.44;5055499;28;20429;-82
2021/07/31 10:32:37;;;;;;;23.23;12.40;;;;;;;35.16;36.32;94356.69;5055656;28;20456;-83
2021/07/31 10:35:07;;;;;;;24.00;14.17;;;;;;;35.42;36.38;94357.94;4983562;28;20490;-82
2021/07/31 10:37:45;;;;;;;20.40;12.30;;;;;;;35.43;35.24;94365.00;5010170;28;20798;-83
2021/07/31 10:40:57;;;;;;;17.30;12.90;;;;;;;35.56;36.29;94352.50;5013288;28;20454;-81
2021/07/31 10:43:27;;;;;;;32.93;13.87;;;;;;;35.69;34.93;94352.53;5013317;28;20447;-80
2021/07/31 10:46:20;;;;;;;35.53;13.90;;;;;;;35.90;34.82;94346.75;5013703;28;20486;-79
2021/07/31 10:48:47;;;;;;;19.93;12.03;;;;;;;36.05;35.52;94346.44;5013393;28;20916;-80
2021/07/31 10:51:44;;;;;;;18.40;13.10;;;;;;;36.12;35.11;94341.38;5013430;28;20427;-79
2021/07/31 10:54:11;;;;;;;20.90;12.20;;;;;;;36.09;35.11;94343.91;5012972;28;20556;-83
2021/07/31 10:56:56;;;;;;;20.83;12.77;;;;;;;36.18;36.11;94342.13;5013018;28;20448;-82
2021/07/31 10:59:24;;;;;;;19.07;12.40;;;;;;;36.25;34.57;94332.38;5013167;28;20428;-82
2021/07/31 11:01:50;;;;;;;24.23;12.37;;;;;;;36.34;35.31;94337.16;5018691;28;20526;-78
2021/07/31 11:04:55;;;;;;;17.30;12.00;;;;;;;36.33;34.37;94332.81;5032050;28;20461;-78
2021/07/31 11:07:25;;;;;;;20.40;13.47;;;;;;;36.28;33.87;94328.22;5031877;28;20462;-77
2021/07/31 11:10:44;;;;;;;26.27;13.87;;;;;;;36.35;35.30;94331.38;5033527;28;20969;-78
2021/07/31 11:13:13;;;;;;;17.53;12.50;;;;;;;36.15;34.62;94327.13;5034506;28;20446;-78
2021/07/31 11:16:14;;;;;;;13.27;12.00;;;;;;;35.87;35.01;94328.25;5033499;28;20510;-77
2021/07/31 11:18:43;;;;;;;22.07;13.00;;;;;;;35.83;35.13;94321.72;5033941;28;20505;-78
2021/07/31 11:21:11;;;;;;;26.57;13.10;;;;;;;35.99;35.01;94320.34;5047693;28;20449;-78
2021/07/31 11:23:41;;;;;;;27.13;12.90;;;;;;;36.23;35.62;94318.22;5053793;28;20449;-78
2021/07/31 11:26:08;;;;;;;19.20;12.80;;;;;;;36.36;35.48;94315.78;5052601;28;20469;-78
2021/07/31 11:28:37;;;;;;;24.63;13.87;;;;;;;36.41;34.88;94313.75;5053952;28;20481;-78